Time;durP1;ratioP1;P1;durP2;ratioP2;P2;SDS_P1;SDS_P2;PMS_P1;PMS_P2;Temp;Humidity;BMP_temperature;BMP_pressure;BME280_temperature;BME280_humidity;BME280_pressure;Samples;Min_cycle;Max_cycle;Signal;HPM_P1;HPM_P2
2023/05/22 00:01:06;;;;;;;15.70;14.10;;;;;;;17.73;67.64;98651.84;6243378;23;20428;-79
2023/05/22 00:03:32;;;;;;;18.15;15.32;;;;;;;17.85;67.43;98671.06;6188528;23;20073;-79
2023/05/22 00:05:59;;;;;;;17.40;15.10;;;;;;;17.82;67.64;98669.75;6217280;23;20375;-79
2023/05/22 00:08:25;;;;;;;18.20;15.10;;;;;;;17.90;68.19;98679.88;6166679;23;20008;-79
2023/05/22 00:10:51;;;;;;;18.23;15.23;;;;;;;17.76;68.21;98664.75;6216192;23;20090;-79
2023/05/22 00:13:16;;;;;;;18.20;15.27;;;;;;;17.93;68.04;98676.56;6217690;23;20117;-79
2023/05/22 00:15:42;;;;;;;18.25;14.50;;;;;;;17.94;67.78;98667.38;6166689;23;20309;-79
2023/05/22 00:18:07;;;;;;;21.95;15.20;;;;;;;17.92;67.78;98664.16;6241623;23;20321;-79
2023/05/22 00:20:37;;;;;;;19.15;15.95;;;;;;;17.83;68.24;98676.75;6216599;23;20008;-79
2023/05/22 00:23:03;;;;;;;19.55;14.15;;;;;;;17.92;68.11;98677.66;6216193;23;20011;-79
2023/05/22 00:25:29;;;;;;;18.13;15.15;;;;;;;17.75;68.27;98672.06;6241417;23;20344;-79
2023/05/22 00:27:54;;;;;;;18.20;15.32;;;;;;;17.61;68.30;98646.94;6189865;23;20012;-79
2023/05/22 00:30:20;;;;;;;19.63;15.73;;;;;;;17.69;68.23;98659.75;6214390;23;20012;-79
2023/05/22 00:32:45;;;;;;;20.48;15.30;;;;;;;17.81;68.25;98678.97;6163847;23;20031;-78
2023/05/22 00:35:11;;;;;;;22.05;16.35;;;;;;;17.75;68.05;98663.97;6213879;23;20433;-78
2023/05/22 00:37:36;;;;;;;16.48;14.40;;;;;;;17.79;68.25;98677.66;6240814;23;20011;-79
2023/05/22 00:40:02;;;;;;;18.92;15.27;;;;;;;17.55;68.65;98667.03;6211655;23;20014;-79
2023/05/22 00:42:27;;;;;;;17.67;14.50;;;;;;;17.77;68.72;98677.16;6239828;23;20332;-79
2023/05/22 00:44:53;;;;;;;19.92;15.63;;;;;;;17.78;68.39;98679.53;6213272;23;20012;-79
2023/05/22 00:47:18;;;;;;;17.63;14.73;;;;;;;17.78;68.38;98682.25;6214474;23;20371;-79
2023/05/22 00:49:45;;;;;;;17.85;15.55;;;;;;;17.60;68.74;98680.44;6190255;23;20099;-79
2023/05/22 00:52:12;;;;;;;17.52;15.05;;;;;;;17.73;68.10;98676.16;6187907;23;20012;-79
2023/05/22 00:54:38;;;;;;;17.50;14.75;;;;;;;17.71;68.37;98683.75;6184061;23;20000;-79
2023/05/22 00:57:04;;;;;;;16.38;14.48;;;;;;;17.70;68.43;98680.25;6189918;23;20390;-78
2023/05/22 00:59:30;;;;;;;18.67;15.77;;;;;;;17.77;68.11;98688.75;6214357;23;20012;-78
2023/05/22 01:01:56;;;;;;;18.08;15.40;;;;;;;17.33;70.49;98660.66;6240128;23;20007;-78
2023/05/22 01:04:22;;;;;;;18.65;15.30;;;;;;;16.97;73.75;98684.75;6242015;23;20471;-78
2023/05/22 01:06:48;;;;;;;24.45;18.05;;;;;;;16.49;75.88;98695.63;6215913;23;20028;-78
2023/05/22 01:09:13;;;;;;;20.23;15.93;;;;;;;16.84;72.59;98677.41;6240118;23;20004;-78
2023/05/22 01:12:03;;;;;;;20.25;15.60;;;;;;;16.90;71.94;98687.00;6242502;22;20015;-79
2023/05/22 01:14:42;;;;;;;22.52;17.58;;;;;;;16.75;73.56;98676.44;6215057;23;20478;-79
2023/05/22 01:17:33;;;;;;;18.92;15.77;;;;;;;17.38;69.50;98677.56;6242565;23;20038;-79
2023/05/22 01:20:05;;;;;;;21.02;17.60;;;;;;;16.59;74.74;98693.91;6212379;23;20091;-79
2023/05/22 01:23:02;;;;;;;19.75;15.82;;;;;;;16.96;71.10;98686.63;6214113;23;20432;-79
2023/05/22 01:25:33;;;;;;;17.85;14.75;;;;;;;17.19;70.11;98684.88;6241678;23;20086;-79
2023/05/22 01:28:22;;;;;;;18.92;14.80;;;;;;;17.28;69.44;98687.75;6241516;23;20410;-79
2023/05/22 01:31:23;;;;;;;18.55;15.02;;;;;;;17.14;69.23;98661.53;6241038;23;20012;-79
2023/05/22 01:33:53;;;;;;;18.58;14.10;;;;;;;17.10;69.27;98670.50;6207400;23;20333;-79
2023/05/22 01:36:23;;;;;;;17.15;14.60;;;;;;;17.17;69.77;98687.88;6214387;23;20000;-79
2023/05/22 01:38:50;;;;;;;16.63;14.85;;;;;;;17.15;69.63;98686.59;6240281;23;20076;-79
2023/05/22 01:41:16;;;;;;;18.75;14.93;;;;;;;17.00;70.30;98665.25;6240911;23;20004;-79
2023/05/22 01:43:42;;;;;;;18.42;15.80;;;;;;;16.94;70.60;98666.44;6188530;23;20148;-79
2023/05/22 01:46:07;;;;;;;18.38;16.05;;;;;;;16.90;70.66;98655.44;6190476;23;20042;-79
2023/05/22 01:48:34;;;;;;;19.33;15.18;;;;;;;16.77;71.14;98672.38;6239472;22;20028;-79
2023/05/22 01:51:04;;;;;;;21.60;16.40;;;;;;;16.93;71.14;98670.22;6238932;23;20446;-78
2023/05/22 01:53:41;;;;;;;18.88;15.98;;;;;;;17.00;71.03;98676.03;6238499;23;20431;-78
2023/05/22 01:56:19;;;;;;;16.02;14.43;;;;;;;16.84;70.96;98661.22;6212819;23;20024;-79
2023/05/22 01:59:13;;;;;;;18.00;15.15;;;;;;;16.80;70.88;98660.19;6211093;23;20424;-78
2023/05/22 02:01:40;;;;;;;20.48;16.92;;;;;;;16.65;72.16;98668.50;6238779;23;20022;-78
2023/05/22 02:04:08;;;;;;;22.77;15.77;;;;;;;16.66;72.21;98667.41;6213110;23;20069;-78
2023/05/22 02:06:34;;;;;;;20.85;16.67;;;;;;;16.77;71.16;98664.28;6240108;23;20034;-79
2023/05/22 02:09:01;;;;;;;20.00;16.35;;;;;;;16.83;70.67;98667.69;6239695;23;20000;-79
2023/05/22 02:11:29;;;;;;;19.58;15.18;;;;;;;16.91;70.53;98661.63;6190781;23;20008;-79
2023/05/22 02:13:56;;;;;;;18.42;15.32;;;;;;;16.80;70.64;98663.69;6242785;23;20436;-78
2023/05/22 02:16:22;;;;;;;18.10;15.65;;;;;;;16.81;70.87;98668.00;6242328;23;20008;-78
2023/05/22 02:18:48;;;;;;;20.90;16.48;;;;;;;16.73;70.73;98654.38;6213984;23;20039;-79
2023/05/22 02:21:13;;;;;;;18.10;14.88;;;;;;;16.77;70.92;98650.00;6214875;23;20015;-79
2023/05/22 02:23:39;;;;;;;18.52;15.63;;;;;;;16.67;70.96;98645.56;6239448;23;20008;-78
2023/05/22 02:26:04;;;;;;;17.83;15.30;;;;;;;16.66;71.08;98652.06;6191605;23;20005;-78
2023/05/22 02:28:30;;;;;;;19.38;16.75;;;;;;;16.68;70.92;98641.78;6212728;23;20008;-78
2023/05/22 02:30:55;;;;;;;16.60;14.18;;;;;;;16.71;71.30;98641.16;6213375;23;20027;-78
2023/05/22 02:33:21;;;;;;;21.35;15.20;;;;;;;16.69;71.54;98650.63;6185560;23;20016;-78
2023/05/22 02:35:46;;;;;;;20.40;14.82;;;;;;;16.54;71.28;98632.81;6187128;23;20119;-78
2023/05/22 02:38:12;;;;;;;18.50;15.45;;;;;;;16.68;70.89;98646.34;6188486;23;20424;-78
2023/05/22 02:40:37;;;;;;;33.83;16.77;;;;;;;16.49;71.18;98636.34;6188244;23;20018;-78
2023/05/22 02:43:02;;;;;;;17.45;15.55;;;;;;;16.49;71.03;98633.66;6215061;23;20047;-78
2023/05/22 02:45:28;;;;;;;18.00;15.68;;;;;;;16.49;71.20;98638.22;6215454;23;20031;-78
2023/05/22 02:47:54;;;;;;;18.02;14.55;;;;;;;16.34;71.70;98628.47;6212201;23;20015;-79
2023/05/22 02:50:19;;;;;;;23.48;16.45;;;;;;;16.28;71.76;98621.56;6189112;23;20359;-79
2023/05/22 02:52:45;;;;;;;18.55;15.00;;;;;;;16.38;72.23;98639.50;6214605;23;20008;-78
2023/05/22 02:55:10;;;;;;;18.52;15.30;;;;;;;16.29;72.20;98617.78;6214177;23;20456;-79
2023/05/22 02:57:36;;;;;;;23.30;16.77;;;;;;;16.22;71.79;98620.06;6191404;23;20010;-79
2023/05/22 03:00:02;;;;;;;17.30;14.98;;;;;;;16.29;72.02;98625.06;6190299;23;20162;-79
2023/05/22 03:02:28;;;;;;;18.98;16.55;;;;;;;16.31;72.33;98629.09;6215742;23;20434;-79
2023/05/22 03:04:54;;;;;;;19.00;15.80;;;;;;;16.33;72.27;98639.56;6215695;23;20009;-79
2023/05/22 03:07:20;;;;;;;20.95;15.90;;;;;;;16.26;72.03;98621.06;6217362;23;20023;-79
2023/05/22 03:09:46;;;;;;;19.42;16.27;;;;;;;16.23;72.22;98628.91;6217098;23;20024;-79
2023/05/22 03:12:11;;;;;;;19.92;16.45;;;;;;;16.28;72.70;98621.56;6215241;23;20030;-79
2023/05/22 03:14:36;;;;;;;21.15;16.20;;;;;;;16.21;72.58;98613.06;6242363;23;20059;-79
2023/05/22 03:17:02;;;;;;;19.33;16.10;;;;;;;16.32;72.21;98633.38;6191213;23;20424;-79
2023/05/22 03:19:28;;;;;;;20.48;15.52;;;;;;;16.15;72.81;98605.31;6215350;23;20015;-79
2023/05/22 03:21:53;;;;;;;21.50;16.35;;;;;;;16.33;72.62;98626.91;6242068;23;20441;-79
2023/05/22 03:24:18;;;;;;;18.90;16.63;;;;;;;16.26;72.44;98631.84;6241002;23;20031;-78
2023/05/22 03:26:44;;;;;;;20.48;16.45;;;;;;;16.18;72.96;98607.44;6242225;23;20012;-79
2023/05/22 03:29:09;;;;;;;22.63;16.80;;;;;;;16.31;72.86;98633.66;6185914;23;20008;-79
2023/05/22 03:31:35;;;;;;;18.42;15.88;;;;;;;16.22;72.90;98611.97;6236551;23;20012;-78
2023/05/22 03:34:01;;;;;;;21.30;17.08;;;;;;;16.27;72.84;98616.50;6211145;23;20012;-79
2023/05/22 03:36:27;;;;;;;22.40;16.30;;;;;;;16.19;72.82;98607.16;6187131;23;20014;-79
2023/05/22 03:38:52;;;;;;;22.80;16.90;;;;;;;16.28;72.84;98621.56;6212366;23;20363;-78
2023/05/22 03:41:18;;;;;;;19.58;15.10;;;;;;;16.30;72.87;98627.47;6237995;23;20007;-78
2023/05/22 03:43:44;;;;;;;22.05;17.08;;;;;;;16.18;72.92;98613.66;6212542;23;20012;-78
2023/05/22 03:46:10;;;;;;;21.08;16.85;;;;;;;16.23;73.04;98628.91;6239520;23;20008;-79
2023/05/22 03:48:35;;;;;;;19.95;15.07;;;;;;;16.26;73.34;98621.06;6211898;23;20459;-79
2023/05/22 03:51:01;;;;;;;21.85;16.17;;;;;;;16.26;72.94;98626.44;6241013;23;20008;-78
2023/05/22 03:53:26;;;;;;;21.55;15.85;;;;;;;16.29;73.11;98625.84;6186957;23;20752;-78
2023/05/22 03:55:52;;;;;;;20.58;16.45;;;;;;;16.31;72.77;98626.41;6210028;23;20042;-79
2023/05/22 03:58:17;;;;;;;24.92;17.13;;;;;;;16.22;72.83;98605.78;6240616;23;20000;-79
2023/05/22 04:00:42;;;;;;;20.65;16.38;;;;;;;16.24;73.09;98625.13;6164707;23;20038;-79
2023/05/22 04:03:11;;;;;;;20.25;15.40;;;;;;;16.33;72.85;98631.47;6238986;23;20012;-78
2023/05/22 04:05:40;;;;;;;19.33;15.48;;;;;;;16.32;72.98;98619.91;6239778;23;20011;-79
2023/05/22 04:08:05;;;;;;;22.10;17.75;;;;;;;16.23;73.10;98608.16;6240033;23;20004;-78
2023/05/22 04:10:30;;;;;;;20.75;16.92;;;;;;;16.30;72.91;98630.16;6185636;23;20010;-78
2023/05/22 04:12:56;;;;;;;21.35;15.95;;;;;;;16.30;73.01;98623.97;6237318;23;20008;-78
2023/05/22 04:15:22;;;;;;;19.92;16.20;;;;;;;16.35;72.93;98635.50;6211268;23;20745;-78
2023/05/22 04:17:48;;;;;;;19.30;16.23;;;;;;;16.37;72.96;98633.31;6164267;23;20015;-78
2023/05/22 04:20:14;;;;;;;19.45;15.77;;;;;;;16.36;73.01;98629.00;6205121;23;20012;-78
2023/05/22 04:22:39;;;;;;;18.55;16.42;;;;;;;16.42;73.23;98638.59;6211140;23;20020;-78
2023/05/22 04:25:05;;;;;;;22.27;16.80;;;;;;;16.53;73.48;98642.00;6186605;23;20012;-78
2023/05/22 04:27:33;;;;;;;19.08;15.98;;;;;;;16.46;72.75;98631.56;6239144;23;20000;-78
2023/05/22 04:29:59;;;;;;;21.00;16.38;;;;;;;16.59;72.84;98646.22;6208290;23;20004;-79
2023/05/22 04:32:25;;;;;;;18.45;14.90;;;;;;;16.50;72.68;98634.50;6211239;23;20008;-78
2023/05/22 04:34:51;;;;;;;21.15;15.23;;;;;;;16.64;72.78;98656.94;6159938;23;20015;-78
2023/05/22 04:37:17;;;;;;;16.27;14.00;;;;;;;16.57;72.81;98644.91;6240693;23;20032;-78
2023/05/22 04:39:44;;;;;;;18.67;15.63;;;;;;;16.76;71.99;98649.19;6210857;23;20008;-78
2023/05/22 04:42:11;;;;;;;20.52;15.52;;;;;;;16.76;72.37;98649.19;6239706;23;20016;-80
2023/05/22 04:44:37;;;;;;;21.38;16.42;;;;;;;16.82;72.24;98653.41;6214057;23;20032;-78
2023/05/22 04:47:03;;;;;;;17.83;15.35;;;;;;;16.76;71.80;98640.28;6212490;23;20015;-79
2023/05/22 04:49:28;;;;;;;19.00;15.43;;;;;;;16.86;71.63;98637.47;6210959;23;20133;-79
2023/05/22 04:51:57;;;;;;;18.67;15.82;;;;;;;16.90;71.61;98633.88;6189408;23;20028;-79
2023/05/22 04:54:25;;;;;;;17.75;15.30;;;;;;;16.94;71.57;98653.75;6187706;23;20012;-79
2023/05/22 04:56:51;;;;;;;19.45;14.85;;;;;;;16.96;72.05;98656.97;6213007;23;20019;-79
2023/05/22 04:59:18;;;;;;;18.20;14.70;;;;;;;17.02;71.41;98646.88;6240841;23;20012;-79
2023/05/22 05:01:44;;;;;;;19.42;15.40;;;;;;;17.01;71.36;98635.31;6212103;23;20063;-80
2023/05/22 05:04:10;;;;;;;18.13;15.52;;;;;;;16.92;71.33;98620.09;6240658;22;20008;-80
2023/05/22 05:06:36;;;;;;;17.48;15.68;;;;;;;17.08;71.75;98634.94;6212440;23;20031;-80
2023/05/22 05:09:03;;;;;;;17.13;14.85;;;;;;;17.15;71.62;98641.53;6213758;23;20124;-80
2023/05/22 05:11:28;;;;;;;23.48;17.92;;;;;;;17.04;73.58;98632.00;6191885;23;20469;-80
2023/05/22 05:13:54;;;;;;;18.15;15.95;;;;;;;17.12;72.37;98630.56;6189665;23;20012;-81
2023/05/22 05:16:19;;;;;;;18.42;15.25;;;;;;;17.19;71.47;98618.25;6242317;23;20357;-80
2023/05/22 05:18:45;;;;;;;19.13;15.65;;;;;;;17.18;72.23;98637.44;6241425;23;20012;-80
2023/05/22 05:21:11;;;;;;;19.20;16.38;;;;;;;17.19;74.83;98641.72;6189638;23;20015;-81
2023/05/22 05:23:36;;;;;;;18.60;16.60;;;;;;;17.04;77.26;98639.28;6190722;23;20012;-80
2023/05/22 05:26:01;;;;;;;18.77;15.60;;;;;;;17.05;73.62;98622.03;6190471;23;20328;-81
2023/05/22 05:28:27;;;;;;;21.45;17.52;;;;;;;17.08;78.44;98635.72;6166480;23;20004;-81
2023/05/22 05:30:52;;;;;;;17.42;15.48;;;;;;;17.41;71.11;98624.91;6243364;23;20038;-81
2023/05/22 05:33:18;;;;;;;15.95;13.90;;;;;;;17.50;71.86;98631.19;6190060;23;20011;-81
2023/05/22 05:35:44;;;;;;;17.98;15.23;;;;;;;17.46;71.89;98641.00;6190710;23;20090;-80
2023/05/22 05:38:09;;;;;;;16.80;15.00;;;;;;;17.59;71.82;98643.75;6243511;23;20012;-81
2023/05/22 05:40:35;;;;;;;14.23;12.80;;;;;;;17.63;70.86;98630.44;6191685;23;20089;-81
2023/05/22 05:43:00;;;;;;;16.25;14.23;;;;;;;17.54;70.83;98632.25;6213506;23;20364;-81
2023/05/22 05:45:26;;;;;;;19.55;15.98;;;;;;;17.56;72.57;98641.63;6244344;23;20008;-81
2023/05/22 05:47:51;;;;;;;17.00;14.43;;;;;;;17.57;71.20;98643.25;6244340;22;20012;-80
2023/05/22 05:50:17;;;;;;;15.93;14.23;;;;;;;17.62;71.49;98648.56;6218130;23;20441;-81
2023/05/22 05:52:43;;;;;;;18.08;15.95;;;;;;;17.40;75.37;98631.41;6218390;23;20448;-81
2023/05/22 05:55:08;;;;;;;18.45;14.60;;;;;;;17.68;71.36;98660.84;6216645;23;20344;-81
2023/05/22 05:57:34;;;;;;;19.90;15.27;;;;;;;17.67;71.19;98653.84;6218720;23;20061;-81
2023/05/22 06:00:00;;;;;;;15.63;14.05;;;;;;;17.74;71.39;98653.44;6216449;23;20011;-80
2023/05/22 06:02:25;;;;;;;19.88;14.20;;;;;;;17.86;71.05;98656.47;6192113;23;20368;-81
2023/05/22 06:04:52;;;;;;;17.23;14.77;;;;;;;17.70;71.33;98636.25;6192405;23;20008;-81
2023/05/22 06:07:18;;;;;;;22.80;17.27;;;;;;;17.68;74.84;98652.75;6245041;23;20004;-81
2023/05/22 06:09:43;;;;;;;19.15;14.85;;;;;;;17.68;73.68;98655.44;6217756;23;20074;-81
2023/05/22 06:12:12;;;;;;;23.17;18.73;;;;;;;17.57;77.21;98642.44;6217136;23;20012;-80
2023/05/22 06:14:40;;;;;;;16.33;14.57;;;;;;;17.72;72.30;98651.06;6217874;23;20011;-81
2023/05/22 06:17:08;;;;;;;20.33;15.75;;;;;;;17.67;75.25;98643.03;6244056;23;20528;-81
2023/05/22 06:19:33;;;;;;;22.38;17.75;;;;;;;17.56;76.65;98644.34;6192971;23;20028;-80
2023/05/22 06:21:59;;;;;;;18.73;16.67;;;;;;;17.70;76.45;98663.25;6217998;23;20042;-81
2023/05/22 06:24:24;;;;;;;16.35;14.60;;;;;;;17.78;72.67;98649.03;6217041;23;20004;-81
2023/05/22 06:26:49;;;;;;;17.25;14.40;;;;;;;17.80;73.89;98650.34;6193159;23;20023;-81
2023/05/22 06:29:15;;;;;;;15.93;14.23;;;;;;;17.93;72.55;98651.47;6244724;22;20048;-81
2023/05/22 06:31:40;;;;;;;21.70;16.40;;;;;;;18.03;75.48;98658.56;6217030;23;20008;-81
2023/05/22 06:34:05;;;;;;;23.35;16.88;;;;;;;18.07;75.41;98651.44;6217235;23;20011;-80
2023/05/22 06:36:33;;;;;;;22.25;16.85;;;;;;;18.22;73.25;98651.94;6192899;23;20007;-81
2023/05/22 06:38:59;;;;;;;17.13;14.43;;;;;;;18.26;71.40;98627.81;6192894;23;20083;-81
2023/05/22 06:41:25;;;;;;;18.48;15.65;;;;;;;18.28;73.55;98647.22;6217378;23;20054;-81
2023/05/22 06:43:50;;;;;;;18.92;16.67;;;;;;;18.28;73.62;98631.00;6189549;23;20012;-81
2023/05/22 06:46:16;;;;;;;15.40;13.80;;;;;;;18.36;71.75;98631.09;6215347;23;20634;-81
2023/05/22 06:48:41;;;;;;;16.27;14.20;;;;;;;18.40;71.08;98617.75;6213240;23;20375;-80
2023/05/22 06:51:09;;;;;;;20.75;16.40;;;;;;;18.50;73.01;98644.63;6188309;23;20019;-81
2023/05/22 06:53:35;;;;;;;23.42;16.67;;;;;;;18.35;74.77;98644.88;6164222;23;20004;-81
2023/05/22 06:56:00;;;;;;;20.00;16.08;;;;;;;18.48;73.40;98638.69;6214351;23;20004;-80
2023/05/22 06:58:25;;;;;;;20.30;15.38;;;;;;;18.61;71.08;98644.06;6189189;23;20012;-81
2023/05/22 07:00:52;;;;;;;19.30;14.85;;;;;;;18.70;71.01;98650.34;6214090;23;20019;-81
2023/05/22 07:03:18;;;;;;;17.38;15.50;;;;;;;18.74;71.93;98647.81;6190803;23;20070;-81
2023/05/22 07:05:43;;;;;;;19.90;17.08;;;;;;;18.58;72.80;98651.97;6241398;23;20368;-80
2023/05/22 07:08:09;;;;;;;19.00;16.83;;;;;;;18.61;74.19;98649.47;6214087;23;20083;-80
2023/05/22 07:10:34;;;;;;;17.23;14.73;;;;;;;18.60;71.53;98622.75;6216347;23;20062;-81
2023/05/22 07:12:59;;;;;;;20.92;16.60;;;;;;;18.63;73.44;98652.66;6215753;23;20023;-81
2023/05/22 07:15:25;;;;;;;23.65;16.88;;;;;;;18.64;73.38;98656.16;6215614;23;20126;-80
2023/05/22 07:17:50;;;;;;;25.13;15.98;;;;;;;18.76;71.97;98640.22;6215346;23;20008;-81
2023/05/22 07:20:16;;;;;;;17.02;13.57;;;;;;;18.84;70.49;98634.06;6215013;23;20387;-81
2023/05/22 07:22:41;;;;;;;16.52;14.20;;;;;;;19.03;70.77;98645.50;6190527;23;20012;-81
2023/05/22 07:25:07;;;;;;;20.17;17.15;;;;;;;19.08;74.26;98661.59;6212337;23;20010;-81
2023/05/22 07:27:32;;;;;;;16.70;13.88;;;;;;;19.11;70.28;98652.84;6215092;23;20012;-80
2023/05/22 07:29:58;;;;;;;25.38;17.17;;;;;;;19.05;72.90;98653.28;6166707;23;20047;-81
2023/05/22 07:32:23;;;;;;;22.10;16.13;;;;;;;19.13;72.87;98663.41;6190820;23;20520;-81
2023/05/22 07:34:48;;;;;;;23.58;16.95;;;;;;;19.12;73.15;98650.97;6212045;23;20073;-81
2023/05/22 07:37:14;;;;;;;17.83;15.90;;;;;;;19.26;72.47;98646.28;6188228;23;20012;-81
2023/05/22 07:39:40;;;;;;;15.48;13.93;;;;;;;19.50;69.27;98651.38;6241036;23;20016;-81
2023/05/22 07:42:06;;;;;;;22.10;16.13;;;;;;;19.42;72.36;98644.78;6214365;23;20016;-81
2023/05/22 07:44:33;;;;;;;21.30;16.42;;;;;;;19.20;72.14;98628.56;6239793;22;20012;-81
2023/05/22 07:46:58;;;;;;;16.00;14.38;;;;;;;19.52;70.50;98649.16;6190521;23;20004;-81
2023/05/22 07:49:24;;;;;;;20.15;17.30;;;;;;;19.64;71.08;98647.44;6242893;23;20035;-81
2023/05/22 07:51:50;;;;;;;21.52;14.05;;;;;;;19.79;72.13;98643.56;6215459;23;20020;-81
2023/05/22 07:54:17;;;;;;;20.92;17.48;;;;;;;19.75;70.62;98632.53;6189286;23;20012;-81
2023/05/22 07:56:42;;;;;;;19.02;16.15;;;;;;;19.87;71.77;98640.06;6216407;23;20027;-81
2023/05/22 07:59:10;;;;;;;18.25;15.77;;;;;;;20.04;72.18;98643.63;6243217;22;20054;-81
2023/05/22 08:01:36;;;;;;;15.50;13.45;;;;;;;20.19;68.21;98647.81;6167941;23;20036;-81
2023/05/22 08:04:02;;;;;;;20.10;15.35;;;;;;;20.23;71.38;98646.09;6215241;23;20079;-81
2023/05/22 08:06:28;;;;;;;18.08;16.10;;;;;;;20.37;70.20;98651.38;6214503;23;20012;-82
2023/05/22 08:08:54;;;;;;;17.75;14.85;;;;;;;20.38;69.06;98640.22;6190910;23;20019;-81
2023/05/22 08:11:20;;;;;;;14.77;13.27;;;;;;;20.60;67.36;98631.13;6191369;23;20015;-81
2023/05/22 08:13:45;;;;;;;19.33;17.33;;;;;;;20.59;71.00;98624.94;6213553;23;20309;-81
2023/05/22 08:16:11;;;;;;;20.60;15.63;;;;;;;20.83;71.17;98635.28;6214393;23;20011;-81
2023/05/22 08:18:36;;;;;;;20.30;15.27;;;;;;;20.92;70.13;98634.16;6188784;23;20737;-82
2023/05/22 08:21:02;;;;;;;15.27;13.13;;;;;;;20.99;66.99;98625.53;6213011;23;20498;-81
2023/05/22 08:23:28;;;;;;;16.90;15.10;;;;;;;20.96;68.44;98620.75;6213604;23;20087;-82
2023/05/22 08:25:54;;;;;;;14.38;12.88;;;;;;;21.12;67.45;98629.22;6188342;23;20004;-82
2023/05/22 08:28:19;;;;;;;16.15;13.48;;;;;;;21.24;67.04;98613.84;6214721;23;20155;-82
2023/05/22 08:30:45;;;;;;;20.33;15.95;;;;;;;21.42;69.59;98625.47;6215541;23;20008;-82
2023/05/22 08:33:10;;;;;;;19.88;15.23;;;;;;;21.45;67.52;98622.91;6184786;23;20012;-81
2023/05/22 08:35:36;;;;;;;15.90;14.20;;;;;;;21.55;66.15;98613.59;6188309;23;20369;-82
2023/05/22 08:38:01;;;;;;;17.88;15.55;;;;;;;21.86;68.24;98630.44;6213190;23;20099;-82
2023/05/22 08:40:36;;;;;;;15.90;13.20;;;;;;;21.92;65.46;98629.13;6211569;23;20039;-81
2023/05/22 08:43:03;;;;;;;16.20;12.40;;;;;;;21.96;64.95;98618.38;6212335;23;20608;-82
2023/05/22 08:45:32;;;;;;;16.75;13.57;;;;;;;22.11;65.14;98625.97;6211578;23;20332;-81
2023/05/22 08:48:04;;;;;;;16.35;13.45;;;;;;;22.15;65.13;98630.44;6242569;23;20082;-81
2023/05/22 08:50:30;;;;;;;12.65;11.35;;;;;;;22.24;64.17;98609.44;6215412;23;20024;-82
2023/05/22 08:53:00;;;;;;;17.20;15.10;;;;;;;22.39;64.85;98602.59;6214347;23;20412;-81
2023/05/22 08:55:26;;;;;;;18.27;14.85;;;;;;;22.61;65.42;98609.66;6242153;23;20008;-81
2023/05/22 08:57:53;;;;;;;16.83;13.88;;;;;;;22.75;65.06;98621.06;6188716;23;20118;-82
2023/05/22 09:00:20;;;;;;;17.67;13.85;;;;;;;22.94;64.62;98615.94;6240632;22;20015;-81
2023/05/22 09:02:47;;;;;;;16.92;14.00;;;;;;;22.90;63.98;98591.31;6242211;22;20412;-81
2023/05/22 09:05:14;;;;;;;13.25;11.85;;;;;;;22.92;63.19;98596.41;6214140;23;20008;-82
2023/05/22 09:07:40;;;;;;;14.65;13.23;;;;;;;23.16;62.73;98607.38;6191427;23;20023;-81
2023/05/22 09:10:06;;;;;;;15.05;13.10;;;;;;;23.20;63.38;98602.09;6242083;23;20039;-81
2023/05/22 09:12:32;;;;;;;15.35;12.73;;;;;;;23.23;62.66;98596.75;6189022;23;20019;-82
2023/05/22 09:15:08;;;;;;;13.57;12.15;;;;;;;23.24;62.26;98590.16;6190244;23;20091;-81
2023/05/22 09:17:34;;;;;;;14.70;12.23;;;;;;;23.42;62.95;98586.13;6189625;23;20012;-81
2023/05/22 09:20:00;;;;;;;15.90;13.57;;;;;;;23.45;65.30;98592.84;6241045;23;20033;-82
2023/05/22 09:22:36;;;;;;;16.80;13.52;;;;;;;23.66;61.95;98582.63;6165785;23;20004;-81
2023/05/22 09:25:02;;;;;;;17.40;12.07;;;;;;;23.79;62.31;98601.38;6213024;23;20008;-81
2023/05/22 09:27:27;;;;;;;14.95;13.23;;;;;;;23.85;61.04;98591.84;6215741;23;20131;-82
2023/05/22 09:29:55;;;;;;;31.08;12.63;;;;;;;24.04;60.99;98587.72;6216181;23;20353;-82
2023/05/22 09:32:21;;;;;;;13.95;12.40;;;;;;;24.04;61.12;98588.53;6191475;23;20091;-82
2023/05/22 09:34:47;;;;;;;18.40;12.50;;;;;;;24.03;60.72;98580.69;6216417;23;19996;-82
2023/05/22 09:37:13;;;;;;;19.55;12.85;;;;;;;24.08;60.92;98591.41;6214283;23;20011;-82
2023/05/22 09:39:46;;;;;;;13.60;12.25;;;;;;;24.09;60.43;98584.81;6243281;23;20412;-82
2023/05/22 09:42:15;;;;;;;15.20;13.27;;;;;;;24.13;61.01;98594.69;6243323;23;20079;-81
2023/05/22 09:44:43;;;;;;;14.95;13.45;;;;;;;24.07;62.46;98574.22;6191091;23;20016;-82
2023/05/22 09:47:08;;;;;;;15.60;12.55;;;;;;;24.15;61.47;98580.72;6244507;23;20000;-82
2023/05/22 09:49:42;;;;;;;16.67;13.82;;;;;;;24.30;61.99;98588.19;6243904;23;20008;-82
2023/05/22 09:52:11;;;;;;;18.10;14.05;;;;;;;24.10;60.58;98586.38;6216736;23;20004;-82
2023/05/22 09:54:54;;;;;;;15.73;12.43;;;;;;;24.19;60.74;98573.41;6191638;23;20419;-81
2023/05/22 09:57:21;;;;;;;13.45;12.15;;;;;;;24.26;62.76;98573.66;6216920;23;20513;-82
2023/05/22 09:59:53;;;;;;;17.48;13.02;;;;;;;24.19;61.36;98576.94;6217361;23;20408;-82
2023/05/22 10:02:22;;;;;;;14.18;11.73;;;;;;;24.46;59.54;98586.34;6218394;23;20014;-82
2023/05/22 10:04:51;;;;;;;13.40;12.10;;;;;;;24.47;57.88;98591.44;6242998;22;20093;-81
2023/05/22 10:07:40;;;;;;;13.02;11.73;;;;;;;24.32;56.76;98577.72;6192522;23;20000;-82
2023/05/22 10:10:10;;;;;;;14.70;12.80;;;;;;;24.18;56.15;98591.72;6241978;23;20008;-81
2023/05/22 10:12:43;;;;;;;12.85;11.63;;;;;;;24.39;59.04;98584.19;6215685;23;20350;-82
2023/05/22 10:15:10;;;;;;;12.85;11.65;;;;;;;24.64;59.17;98590.34;6190672;23;20011;-81
2023/05/22 10:17:36;;;;;;;15.20;11.82;;;;;;;24.57;57.25;98581.97;6216288;23;20004;-81
2023/05/22 10:20:06;;;;;;;13.30;11.88;;;;;;;24.54;57.81;98578.00;6164717;23;20112;-82
2023/05/22 10:22:35;;;;;;;16.40;11.50;;;;;;;24.43;58.34;98560.53;6214426;23;20008;-81
2023/05/22 10:25:01;;;;;;;13.18;11.50;;;;;;;24.47;57.13;98566.88;6191270;23;20015;-81
2023/05/22 10:27:27;;;;;;;12.38;11.15;;;;;;;24.46;58.43;98565.28;6216819;23;20008;-81
2023/05/22 10:30:10;;;;;;;14.55;12.23;;;;;;;24.50;58.01;98568.13;6164080;23;20102;-82
2023/05/22 10:32:50;;;;;;;18.33;10.20;;;;;;;24.69;57.24;98570.19;6241318;23;20008;-82
2023/05/22 10:35:24;;;;;;;12.18;10.18;;;;;;;24.72;55.50;98566.78;6238701;23;20455;-82
2023/05/22 10:37:52;;;;;;;13.43;12.13;;;;;;;25.00;56.74;98573.06;6188657;23;20019;-81
2023/05/22 10:40:27;;;;;;;22.55;11.95;;;;;;;25.03;54.86;98573.13;6214639;23;20383;-82
2023/05/22 10:42:57;;;;;;;25.25;11.68;;;;;;;25.11;56.09;98568.66;6240528;23;20008;-82
2023/05/22 10:45:25;;;;;;;12.82;10.63;;;;;;;25.15;55.67;98564.88;6189589;23;20440;-82
2023/05/22 10:48:07;;;;;;;12.38;9.85;;;;;;;25.28;55.12;98555.47;6214406;23;20058;-82
2023/05/22 10:50:34;;;;;;;11.57;10.10;;;;;;;25.27;52.57;98564.78;6214391;23;20091;-82
2023/05/22 10:53:21;;;;;;;11.82;9.63;;;;;;;25.58;54.40;98572.25;6216408;23;20000;-82
2023/05/22 10:55:54;;;;;;;12.63;10.18;;;;;;;25.69;54.66;98565.09;6215612;23;20016;-82
2023/05/22 10:58:30;;;;;;;12.63;9.90;;;;;;;25.77;52.36;98550.47;6190561;23;20062;-82
2023/05/22 11:01:15;;;;;;;11.38;10.05;;;;;;;25.35;51.75;98549.38;6215378;23;20575;-82
2023/05/22 11:04:00;;;;;;;13.18;10.15;;;;;;;25.34;52.59;98557.94;6215704;23;20011;-82
2023/05/22 11:06:45;;;;;;;16.42;10.02;;;;;;;25.58;53.61;98538.63;6240898;23;20058;-82
2023/05/22 11:09:30;;;;;;;11.13;10.05;;;;;;;25.65;52.97;98547.81;6214616;23;20016;-82
2023/05/22 11:12:24;;;;;;;12.88;10.80;;;;;;;25.28;52.04;98549.19;6214874;23;20008;-82
2023/05/22 11:14:57;;;;;;;11.45;10.48;;;;;;;25.35;53.33;98543.91;6214897;23;20428;-81
2023/05/22 11:17:31;;;;;;;10.98;9.98;;;;;;;25.43;53.03;98539.44;6212453;23;20014;-82
2023/05/22 11:20:03;;;;;;;12.60;9.95;;;;;;;25.47;53.14;98545.81;6214672;23;20027;-82